Terminal Aerodrome Forecast
Issued by NWS

Home | Current Version | Previous Version | Text Only | Print | Product List | Glossary On
Versions: 1 2 3 4 5 6 7 8 9 10 11 12 13 14 15 16 17 18 19 20 21 22 23 24 25 26 27 28 29 30 31 32 33 34 35 36 37 38 39 40 41 42 43 44 45 46 47 48 49 50
000
FTUS45 KGJT 191404 AAB
TAFEGE
TAF AMD
KEGE 191404Z 1914/2012 00000KT P6SM VCFG FEW030 SCT040 BKN060
      TEMPO 1914/1915 5SM BR BKN005 BKN010
     FM191500 VRB03KT P6SM VCFG SCT012 BKN050
     FM192000 27008KT P6SM BKN050
     FM200200 11006KT P6SM BKN050=

USA.gov is the U.S. government's official web portal to all federal, state and local government web resources and services.